Time;durP1;ratioP1;P1;durP2;ratioP2;P2;SDS_P1;SDS_P2;PMS_P1;PMS_P2;Temp;Humidity;BMP_temperature;BMP_pressure;BME280_temperature;BME280_humidity;BME280_pressure;Samples;Min_cycle;Max_cycle;Signal;HPM_P1;HPM_P2
2023/06/11 00:00:50;;;;;;;7.67;6.13;;;20.40;99.00;;;21.13;100.00;97968.50;5021623;28;20475;-80
2023/06/11 00:03:21;;;;;;;6.40;5.70;;;20.30;98.90;;;21.09;100.00;97968.19;5023406;28;20464;-79
2023/06/11 00:05:51;;;;;;;6.90;5.60;;;20.30;99.00;;;21.07;100.00;97970.28;5023336;28;20531;-79
2023/06/11 00:08:20;;;;;;;11.23;6.63;;;20.20;99.10;;;21.00;100.00;97965.19;5026835;28;20527;-79
2023/06/11 00:10:50;;;;;;;8.13;5.83;;;20.20;99.30;;;20.93;100.00;97971.78;5021945;28;20481;-79
2023/06/11 00:13:19;;;;;;;7.50;6.10;;;20.20;99.30;;;20.88;100.00;97967.25;5022878;28;20493;-82
2023/06/11 00:15:48;;;;;;;15.27;6.27;;;20.10;99.20;;;20.84;100.00;97965.34;5023242;28;20505;-80
2023/06/11 00:18:18;;;;;;;9.37;6.37;;;20.10;99.80;;;20.82;100.00;97970.13;5024923;28;20466;-80
2023/06/11 00:20:48;;;;;;;7.83;5.90;;;20.00;99.50;;;20.79;100.00;97968.75;5019606;28;20704;-79
2023/06/11 00:23:17;;;;;;;8.43;6.00;;;20.00;99.50;;;20.76;100.00;97968.44;5022556;28;21000;-79
2023/06/11 00:25:46;;;;;;;8.17;6.30;;;20.00;99.60;;;20.71;100.00;97966.56;5021962;28;20474;-80
2023/06/11 00:28:20;;;;;;;10.13;6.10;;;20.00;99.90;;;20.64;100.00;97971.28;5022400;28;20942;-79
2023/06/11 00:30:48;;;;;;;8.17;6.40;;;20.00;99.80;;;20.60;100.00;97975.50;5020502;28;20466;-80
2023/06/11 00:33:17;;;;;;;7.03;6.07;;;19.90;99.90;;;20.58;100.00;97970.44;5020963;28;20470;-79
2023/06/11 00:35:46;;;;;;;7.30;5.53;;;19.80;99.90;;;20.58;100.00;97967.78;5022545;28;20469;-79
2023/06/11 00:38:15;;;;;;;7.50;6.33;;;19.80;99.90;;;20.55;100.00;97978.09;5022463;28;20486;-79
2023/06/11 00:40:48;;;;;;;12.17;6.23;;;19.80;99.90;;;20.48;100.00;97972.19;5020789;28;20472;-79
2023/06/11 00:43:23;;;;;;;13.40;6.40;;;19.80;99.90;;;20.41;100.00;97974.28;5023468;28;20494;-79
2023/06/11 00:45:52;;;;;;;6.80;5.70;;;19.70;99.90;;;20.37;100.00;97971.31;5023015;28;20860;-80
2023/06/11 00:48:22;;;;;;;8.13;5.50;;;19.70;99.90;;;20.35;100.00;97970.75;5022929;28;20462;-81
2023/06/11 00:50:53;;;;;;;9.73;6.40;;;19.60;99.90;;;20.34;100.00;97969.16;5020820;28;20482;-79
2023/06/11 00:53:22;;;;;;;8.37;6.90;;;19.60;99.90;;;20.34;100.00;97976.34;5021151;28;20528;-80
2023/06/11 00:55:51;;;;;;;7.27;6.13;;;19.50;99.90;;;20.33;100.00;97975.53;5021896;28;20462;-80
2023/06/11 00:58:22;;;;;;;7.90;6.50;;;19.50;99.90;;;20.33;100.00;97975.53;5024112;28;20558;-80
2023/06/11 01:01:00;;;;;;;8.00;6.07;;;19.50;99.90;;;20.28;100.00;97980.78;5024046;28;20469;-80
2023/06/11 01:03:33;;;;;;;6.90;5.53;;;19.50;99.90;;;20.22;100.00;97979.09;5024755;28;21034;-80
2023/06/11 01:06:05;;;;;;;7.33;5.87;;;19.50;99.90;;;20.18;100.00;97980.66;5024793;28;21151;-79
2023/06/11 01:08:38;;;;;;;7.83;6.20;;;19.40;99.90;;;20.17;100.00;97987.00;5024988;28;20940;-80
2023/06/11 01:11:13;;;;;;;8.70;6.37;;;19.40;99.90;;;20.11;100.00;97980.03;5024500;28;20458;-80
2023/06/11 01:13:44;;;;;;;9.27;6.80;;;19.40;99.90;;;20.06;100.00;97977.34;5024843;28;20497;-80
2023/06/11 01:16:23;;;;;;;10.80;6.27;;;19.40;99.90;;;20.01;100.00;97977.28;5023704;28;20937;-80
2023/06/11 01:19:03;;;;;;;7.00;5.90;;;19.30;99.90;;;20.00;100.00;97979.13;5023622;28;20531;-80
2023/06/11 01:21:43;;;;;;;8.77;6.50;;;19.20;99.90;;;19.99;100.00;97980.16;5025384;28;20470;-80
2023/06/11 01:24:21;;;;;;;7.40;6.00;;;19.20;99.90;;;19.96;100.00;97979.88;5024300;28;20466;-79
2023/06/11 01:27:19;;;;;;;9.10;6.70;;;19.20;99.90;;;19.91;100.00;97979.81;5023319;28;20469;-80
2023/06/11 01:29:51;;;;;;;13.67;6.73;;;19.20;99.90;;;19.84;100.00;97987.19;5020810;28;20901;-80
2023/06/11 01:32:27;;;;;;;7.40;5.90;;;19.10;99.90;;;19.82;100.00;97992.72;5020697;28;20640;-80
2023/06/11 01:35:02;;;;;;;7.17;6.23;;;19.10;99.90;;;19.80;100.00;97996.69;5019884;28;20469;-79
2023/06/11 01:37:32;;;;;;;8.70;6.13;;;19.10;99.90;;;19.73;100.00;97993.41;5020643;28;20539;-79
2023/06/11 01:40:01;;;;;;;13.07;6.60;;;19.10;99.90;;;19.70;100.00;97991.25;5020419;28;20470;-80
2023/06/11 01:42:30;;;;;;;7.57;6.10;;;19.00;99.90;;;19.69;100.00;97994.94;5021184;28;20585;-80
2023/06/11 01:45:01;;;;;;;6.60;5.70;;;18.90;99.90;;;19.66;100.00;97996.25;5020376;28;20532;-80
2023/06/11 01:47:30;;;;;;;11.60;6.17;;;18.90;99.90;;;19.65;100.00;97999.13;5022645;28;20462;-79
2023/06/11 01:49:59;;;;;;;7.63;6.27;;;18.90;99.90;;;19.62;100.00;97989.00;5021359;28;20470;-80
2023/06/11 01:52:28;;;;;;;7.03;6.17;;;18.80;99.90;;;19.57;100.00;97987.13;5020020;28;20980;-79
2023/06/11 01:54:57;;;;;;;7.70;6.40;;;18.80;99.90;;;19.50;100.00;97997.91;5020176;28;21021;-80
2023/06/11 01:57:26;;;;;;;7.80;6.83;;;18.80;99.90;;;19.44;100.00;97998.06;5023517;28;20470;-80
2023/06/11 01:59:54;;;;;;;7.03;5.90;;;18.80;99.90;;;19.39;100.00;97998.78;5023833;28;20480;-79
2023/06/11 02:02:24;;;;;;;7.30;6.57;;;18.70;99.90;;;19.37;100.00;98008.00;5024656;28;20904;-79
2023/06/11 02:04:53;;;;;;;12.70;6.83;;;18.70;99.90;;;19.37;100.00;98008.00;5025232;28;20501;-80
2023/06/11 02:07:22;;;;;;;8.93;6.87;;;18.60;99.90;;;19.39;100.00;98001.44;5023921;28;20476;-80
2023/06/11 02:09:52;;;;;;;13.30;6.33;;;18.60;99.90;;;19.39;100.00;98012.03;5020836;28;20555;-79
2023/06/11 02:12:21;;;;;;;9.40;6.33;;;18.60;99.90;;;19.38;100.00;98005.13;5026896;28;20559;-80
2023/06/11 02:14:50;;;;;;;8.63;5.93;;;18.50;99.90;;;19.38;100.00;98002.47;5027339;28;20527;-79
2023/06/11 02:17:19;;;;;;;7.63;5.83;;;18.50;99.90;;;19.37;100.00;98003.50;5024018;28;20466;-80
2023/06/11 02:19:50;;;;;;;11.07;6.57;;;18.60;99.90;;;19.34;100.00;98000.53;5025387;28;20477;-79
2023/06/11 02:22:19;;;;;;;9.60;6.50;;;18.50;99.90;;;19.33;100.00;98010.34;5024972;28;20465;-79
2023/06/11 02:24:48;;;;;;;9.63;6.40;;;18.50;99.90;;;19.30;100.00;98018.78;5027138;28;20489;-79
2023/06/11 02:27:17;;;;;;;9.70;7.00;;;18.50;99.90;;;19.28;100.00;98026.19;5025782;28;20472;-79
2023/06/11 02:29:47;;;;;;;7.97;6.40;;;18.50;99.90;;;19.26;100.00;98007.09;5024407;28;20469;-79
2023/06/11 02:32:16;;;;;;;8.67;6.97;;;18.40;99.90;;;19.22;100.00;98005.97;5025805;28;20466;-80
2023/06/11 02:34:45;;;;;;;9.53;6.00;;;18.50;99.90;;;19.18;100.00;98012.78;5026443;28;20494;-79
2023/06/11 02:37:16;;;;;;;11.10;6.43;;;18.40;99.90;;;19.16;100.00;98006.91;5026119;28;20485;-80
2023/06/11 02:39:46;;;;;;;8.53;7.20;;;18.40;99.90;;;19.14;100.00;98011.66;5025282;28;20463;-79
2023/06/11 02:42:14;;;;;;;10.97;7.30;;;18.30;99.90;;;19.14;100.00;98019.63;5023790;28;20528;-80
2023/06/11 02:44:43;;;;;;;8.33;6.27;;;18.30;99.90;;;19.09;100.00;98022.19;5024835;28;20864;-80
2023/06/11 02:47:11;;;;;;;8.33;6.07;;;18.30;99.90;;;19.00;100.00;98008.53;5024260;28;20999;-79
2023/06/11 02:49:40;;;;;;;13.27;7.20;;;18.30;99.90;;;18.92;100.00;98010.78;5024345;28;20470;-80
2023/06/11 02:52:10;;;;;;;8.57;6.37;;;18.30;99.90;;;18.89;100.00;98013.91;5025459;28;20462;-79
2023/06/11 02:54:41;;;;;;;9.73;7.40;;;18.20;99.90;;;18.87;100.00;98016.00;5024113;28;20512;-80
2023/06/11 02:57:09;;;;;;;9.40;6.47;;;18.20;99.90;;;18.87;100.00;98016.00;5023555;28;20470;-79
2023/06/11 02:59:38;;;;;;;7.90;6.50;;;18.10;99.90;;;18.84;100.00;98014.66;5023237;28;20467;-79
2023/06/11 03:02:07;;;;;;;10.07;7.07;;;18.10;99.90;;;18.81;100.00;98015.09;5024043;28;20470;-79
2023/06/11 03:04:36;;;;;;;8.83;7.30;;;18.10;99.90;;;18.78;100.00;98009.50;5023083;28;20513;-79
2023/06/11 03:07:06;;;;;;;10.90;6.10;;;18.10;99.90;;;18.77;100.00;98010.56;5025838;28;20470;-79
2023/06/11 03:09:34;;;;;;;7.37;6.37;;;18.00;99.90;;;18.74;100.00;98011.84;5021051;28;20504;-79
2023/06/11 03:12:06;;;;;;;6.83;5.60;;;18.00;99.90;;;18.70;100.00;98010.72;5026538;28;20697;-79
2023/06/11 03:14:36;;;;;;;9.10;6.80;;;18.00;99.90;;;18.64;100.00;98009.00;5025940;28;20996;-80
2023/06/11 03:17:05;;;;;;;9.23;7.27;;;17.90;99.90;;;18.60;100.00;98013.97;5025468;28;20512;-79
2023/06/11 03:19:34;;;;;;;8.83;6.70;;;17.90;99.90;;;18.60;100.00;98008.66;5025134;28;20466;-79
2023/06/11 03:22:03;;;;;;;14.20;6.93;;;17.80;99.90;;;18.59;100.00;98015.03;5026600;28;20470;-79
2023/06/11 03:24:32;;;;;;;7.50;6.40;;;17.80;99.90;;;18.54;100.00;98014.94;5023494;28;20964;-79
2023/06/11 03:27:01;;;;;;;10.13;7.00;;;17.80;99.90;;;18.52;100.00;98016.22;5022361;28;20474;-79
2023/06/11 03:29:32;;;;;;;9.60;6.90;;;17.80;99.90;;;18.51;100.00;98015.41;5021361;28;21043;-80
2023/06/11 03:32:01;;;;;;;9.43;6.87;;;17.80;99.90;;;18.47;100.00;98016.09;5021685;28;21563;-79
2023/06/11 03:34:30;;;;;;;10.33;6.97;;;17.80;99.90;;;18.44;100.00;98025.31;5020709;28;20469;-80
2023/06/11 03:37:00;;;;;;;14.00;7.67;;;17.70;99.90;;;18.37;100.00;98019.34;5023146;28;20510;-80
2023/06/11 03:39:30;;;;;;;12.03;7.70;;;17.70;99.90;;;18.32;100.00;98021.94;5022006;28;20466;-79
2023/06/11 03:41:59;;;;;;;8.87;6.47;;;17.70;99.90;;;18.30;100.00;98021.34;5020305;28;20969;-79
2023/06/11 03:44:28;;;;;;;10.80;7.70;;;17.60;99.90;;;18.28;100.00;98020.78;5022040;28;20493;-80
2023/06/11 03:46:58;;;;;;;12.13;6.80;;;17.60;99.90;;;18.29;100.00;98022.38;5023460;28;20463;-79
2023/06/11 03:49:27;;;;;;;6.93;6.20;;;17.60;99.90;;;18.30;100.00;98026.63;5023372;28;20457;-79
2023/06/11 03:51:56;;;;;;;7.97;6.73;;;17.50;99.90;;;18.31;100.00;98022.97;5005087;28;20972;-80
2023/06/11 03:54:25;;;;;;;8.43;7.43;;;17.50;99.90;;;18.31;100.00;98025.59;5025471;28;20876;-80
2023/06/11 03:56:53;;;;;;;9.80;6.93;;;17.60;99.90;;;18.27;100.00;98024.47;5022845;28;20818;-80
2023/06/11 03:59:22;;;;;;;8.73;6.70;;;17.50;99.90;;;18.26;100.00;98022.84;5023158;28;21127;-79
2023/06/11 04:01:51;;;;;;;8.37;6.67;;;17.50;99.90;;;18.24;100.00;98024.13;5020165;28;20462;-79
2023/06/11 04:04:21;;;;;;;8.73;6.37;;;17.50;99.90;;;18.20;100.00;98026.44;5023111;28;20490;-79
2023/06/11 04:06:50;;;;;;;9.63;7.60;;;17.50;99.90;;;18.21;100.00;98025.41;5023367;28;21009;-79
2023/06/11 04:09:19;;;;;;;13.13;6.80;;;17.50;99.90;;;18.19;100.00;98030.13;5022378;28;20477;-79
2023/06/11 04:11:48;;;;;;;9.80;7.30;;;17.50;99.90;;;18.18;100.00;98028.53;5020663;28;20480;-80
2023/06/11 04:14:18;;;;;;;9.20;6.80;;;17.50;99.90;;;18.19;100.00;98032.00;5022502;28;20493;-79
2023/06/11 04:16:46;;;;;;;10.33;7.63;;;17.50;99.90;;;18.21;100.00;98030.72;5021600;28;21184;-79
2023/06/11 04:19:16;;;;;;;8.50;6.83;;;17.40;99.90;;;18.24;100.00;98032.06;5017264;28;20553;-80
2023/06/11 04:21:47;;;;;;;10.63;7.63;;;17.40;99.90;;;18.25;100.00;98031.84;5019228;28;20469;-79
2023/06/11 04:24:17;;;;;;;8.70;6.93;;;17.40;99.90;;;18.26;100.00;98027.34;5020094;28;20850;-80
2023/06/11 04:26:47;;;;;;;9.53;7.63;;;17.50;99.90;;;18.25;100.00;98021.25;5020655;28;20527;-80
2023/06/11 04:29:18;;;;;;;9.60;7.50;;;17.50;99.90;;;18.26;100.00;98033.44;5024736;28;20496;-79
2023/06/11 04:31:48;;;;;;;7.90;7.10;;;17.50;99.90;;;18.30;100.00;98039.88;5023302;28;20482;-79
2023/06/11 04:34:18;;;;;;;10.67;8.00;;;17.50;99.90;;;18.31;100.00;98043.34;5025288;28;20469;-79
2023/06/11 04:36:51;;;;;;;7.33;6.63;;;17.50;99.90;;;18.32;100.00;98043.09;5025558;28;21026;-79
2023/06/11 04:39:19;;;;;;;9.40;7.73;;;17.50;99.90;;;18.33;100.00;98039.41;5024368;28;20468;-79
2023/06/11 04:41:51;;;;;;;9.33;7.80;;;17.60;99.90;;;18.35;100.00;98044.47;5024489;28;20474;-79
2023/06/11 04:44:20;;;;;;;15.57;8.90;;;17.60;99.90;;;18.38;100.00;98044.00;5024434;28;20502;-79
2023/06/11 04:46:49;;;;;;;9.10;7.63;;;17.60;99.90;;;18.39;100.00;98041.13;5023783;28;20466;-79
2023/06/11 04:49:20;;;;;;;8.20;6.80;;;17.60;99.90;;;18.41;100.00;98041.69;5022455;28;20462;-79
2023/06/11 04:51:52;;;;;;;10.70;7.40;;;17.60;99.90;;;18.44;100.00;98043.03;5023349;28;20602;-79
2023/06/11 04:54:22;;;;;;;11.20;8.23;;;17.60;99.90;;;18.46;100.00;98039.13;5021796;28;20471;-80
2023/06/11 04:56:51;;;;;;;8.83;7.33;;;17.70;99.90;;;18.51;100.00;98051.69;5022128;28;20466;-77
2023/06/11 04:59:19;;;;;;;9.50;7.30;;;17.60;99.90;;;18.53;100.00;98045.09;5019271;28;20477;-80
2023/06/11 05:01:53;;;;;;;8.93;7.13;;;17.70;99.90;;;18.57;100.00;98048.88;5019448;28;20508;-79
2023/06/11 05:04:23;;;;;;;11.03;7.00;;;17.70;99.90;;;18.58;100.00;98042.53;5021181;28;20501;-79
2023/06/11 05:06:54;;;;;;;9.37;7.83;;;17.80;99.90;;;18.63;100.00;98054.28;5019300;28;20465;-79
2023/06/11 05:09:25;;;;;;;12.30;7.70;;;17.80;99.90;;;18.67;100.00;98055.41;5019965;28;20841;-80
2023/06/11 05:11:54;;;;;;;9.73;7.23;;;17.80;99.90;;;18.69;100.00;98051.47;5002207;28;20465;-80
2023/06/11 05:14:22;;;;;;;9.00;7.00;;;17.90;99.90;;;18.70;100.00;98049.63;5019668;28;20478;-79
2023/06/11 05:16:53;;;;;;;13.40;7.10;;;17.90;99.90;;;18.72;100.00;98053.66;5020351;28;20518;-80
2023/06/11 05:19:22;;;;;;;8.67;7.07;;;17.90;99.90;;;18.75;100.00;98045.22;5019816;28;20496;-80
2023/06/11 05:21:57;;;;;;;72.30;38.00;;;18.00;99.90;;;18.78;100.00;98057.22;5004222;28;20470;-82
2023/06/11 05:24:29;;;;;;;11.53;7.60;;;18.00;99.90;;;18.81;100.00;98054.84;5020961;28;20481;-82
2023/06/11 05:27:01;;;;;;;8.37;7.23;;;18.00;99.90;;;18.86;100.00;98060.25;5023298;28;20846;-81
2023/06/11 05:29:30;;;;;;;10.77;7.13;;;18.00;99.90;;;18.91;100.00;98057.69;5025359;28;20541;-80
2023/06/11 05:32:00;;;;;;;11.07;7.30;;;18.00;99.90;;;18.96;100.00;98060.41;5025648;28;20517;-80
2023/06/11 05:34:30;;;;;;;7.83;6.53;;;18.10;99.90;;;19.01;100.00;98059.72;5010260;28;20466;-80
2023/06/11 05:37:08;;;;;;;9.80;8.10;;;18.10;99.90;;;19.06;100.00;98065.06;5024243;28;20995;-80
2023/06/11 05:39:37;;;;;;;8.50;7.20;;;18.10;99.90;;;19.10;100.00;98058.25;5024490;28;20492;-79
2023/06/11 05:42:10;;;;;;;13.63;7.97;;;18.20;99.90;;;19.14;100.00;98051.44;5022906;28;20473;-80
2023/06/11 05:44:40;;;;;;;8.57;6.90;;;18.30;99.90;;;19.19;100.00;98059.47;5025338;28;20482;-80
2023/06/11 05:47:10;;;;;;;8.00;7.20;;;18.30;99.90;;;19.22;100.00;98052.88;5007060;28;20477;-80
2023/06/11 05:49:39;;;;;;;8.57;7.63;;;18.40;99.90;;;19.28;100.00;98059.88;5024445;28;20465;-80
2023/06/11 05:52:09;;;;;;;10.17;6.90;;;18.40;99.90;;;19.31;100.00;98052.22;4968986;28;20465;-80
2023/06/11 05:54:39;;;;;;;13.83;7.63;;;18.50;99.90;;;19.37;100.00;98055.75;5009554;28;20531;-80
2023/06/11 05:57:19;;;;;;;7.57;6.87;;;18.50;99.90;;;19.42;100.00;98054.03;5021725;28;20472;-80
2023/06/11 05:59:50;;;;;;;18.93;7.30;;;18.50;99.90;;;19.47;100.00;98056.72;5006641;28;21277;-81
2023/06/11 06:02:20;;;;;;;10.20;7.40;;;18.60;99.90;;;19.51;100.00;98057.03;5024112;28;20524;-80
2023/06/11 06:04:51;;;;;;;12.93;6.93;;;18.70;99.90;;;19.55;100.00;98053.66;5024505;28;20503;-80
2023/06/11 06:07:27;;;;;;;9.33;6.80;;;18.70;99.90;;;19.59;100.00;98052.16;5023329;28;20843;-80
2023/06/11 06:09:58;;;;;;;8.30;6.43;;;18.70;99.90;;;19.68;100.00;98057.03;5001256;28;20469;-80
2023/06/11 06:12:29;;;;;;;10.07;7.13;;;18.80;99.90;;;19.74;100.00;98061.34;5023163;28;20466;-80
2023/06/11 06:15:07;;;;;;;10.53;7.23;;;18.90;99.90;;;19.80;100.00;98063.03;5023463;28;20472;-80
2023/06/11 06:17:44;;;;;;;6.77;5.70;;;18.90;99.90;;;19.85;100.00;98063.09;5022802;28;20819;-80
2023/06/11 06:20:13;;;;;;;53.53;37.70;;;19.00;99.90;;;19.93;100.00;98070.63;5023877;28;21001;-76
2023/06/11 06:22:43;;;;;;;20.90;13.80;;;19.10;99.90;;;19.98;100.00;98073.34;5022876;28;21067;-80
2023/06/11 06:25:17;;;;;;;8.20;7.10;;;19.10;99.90;;;20.06;100.00;98073.72;5024460;28;20505;-80
2023/06/11 06:27:47;;;;;;;7.00;5.60;;;19.30;99.90;;;20.15;100.00;98070.63;5019900;28;20544;-80
2023/06/11 06:30:16;;;;;;;8.90;6.20;;;19.40;99.90;;;20.21;100.00;98067.78;5023501;28;20882;-79
2023/06/11 06:32:47;;;;;;;7.90;6.00;;;19.40;99.90;;;20.28;100.00;98079.06;5024372;28;20860;-80
2023/06/11 06:35:18;;;;;;;7.77;6.57;;;19.60;99.90;;;20.35;100.00;98082.34;5026182;28;20457;-80
2023/06/11 06:37:51;;;;;;;6.43;5.80;;;19.60;99.90;;;20.42;100.00;98082.13;5009972;28;20516;-80
2023/06/11 06:40:20;;;;;;;7.03;5.67;;;19.60;99.90;;;20.48;100.00;98068.66;5026174;28;20462;-79
2023/06/11 06:42:50;;;;;;;9.90;6.30;;;19.70;99.90;;;20.54;100.00;98073.00;5007434;28;20464;-80
2023/06/11 06:45:19;;;;;;;7.30;5.80;;;19.80;99.90;;;20.62;100.00;98073.59;5026136;28;20500;-81
2023/06/11 06:47:47;;;;;;;8.93;6.03;;;19.90;99.90;;;20.68;100.00;98073.41;5026803;28;20469;-80
2023/06/11 06:50:17;;;;;;;9.67;6.10;;;20.00;99.90;;;20.76;100.00;98077.44;5025662;28;21032;-80
2023/06/11 06:52:46;;;;;;;8.93;6.03;;;20.00;99.90;;;20.83;100.00;98064.75;5024364;28;20475;-80
2023/06/11 06:55:16;;;;;;;9.03;6.10;;;20.10;99.90;;;20.88;100.00;98067.47;5009926;28;20516;-80
2023/06/11 06:57:45;;;;;;;8.87;5.47;;;20.10;99.90;;;20.96;100.00;98069.66;5027095;28;20458;-81
2023/06/11 07:00:17;;;;;;;6.90;5.53;;;20.40;99.90;;;21.02;100.00;98066.00;5024821;28;20470;-80
2023/06/11 07:02:46;;;;;;;7.63;5.77;;;20.30;99.90;;;21.08;100.00;98067.63;5020735;28;20524;-82
2023/06/11 07:05:16;;;;;;;6.30;5.00;;;20.40;99.90;;;21.13;100.00;98075.69;5022663;28;20494;-80
2023/06/11 07:07:45;;;;;;;7.87;5.57;;;20.50;99.90;;;21.17;100.00;98078.66;5024187;28;20836;-81
2023/06/11 07:10:14;;;;;;;9.83;5.87;;;20.40;99.90;;;21.23;100.00;98075.78;5022883;28;20998;-80
2023/06/11 07:12:44;;;;;;;13.57;6.40;;;20.40;99.90;;;21.28;100.00;98078.44;5021792;28;20863;-80
2023/06/11 07:15:13;;;;;;;9.10;5.33;;;20.50;99.90;;;21.36;100.00;98077.19;5023820;28;20458;-80
2023/06/11 07:17:41;;;;;;;13.70;5.60;;;20.60;99.90;;;21.44;100.00;98082.84;5022838;28;20480;-81
2023/06/11 07:20:11;;;;;;;5.60;4.50;;;20.70;99.90;;;21.50;100.00;98081.81;5023543;28;20466;-78
2023/06/11 07:22:41;;;;;;;6.90;5.93;;;20.80;99.90;;;21.58;100.00;98088.53;5023537;28;20996;-80
2023/06/11 07:25:09;;;;;;;8.83;5.90;;;20.90;99.90;;;21.64;100.00;98084.03;5022527;28;20469;-81
2023/06/11 07:27:38;;;;;;;9.43;5.27;;;21.00;99.90;;;21.70;100.00;98085.66;5023208;28;21145;-80
2023/06/11 07:30:10;;;;;;;7.80;5.33;;;21.10;99.90;;;21.76;100.00;98085.47;5022951;28;20471;-80
2023/06/11 07:32:39;;;;;;;8.43;5.50;;;21.10;99.90;;;21.83;100.00;98085.22;5023798;28;20474;-80
2023/06/11 07:35:08;;;;;;;5.83;4.47;;;21.20;99.90;;;21.89;100.00;98094.84;5021993;28;20599;-80
2023/06/11 07:37:37;;;;;;;6.83;5.10;;;21.20;99.90;;;21.93;100.00;98086.09;5022439;28;20485;-81
2023/06/11 07:40:07;;;;;;;7.40;5.67;;;21.30;99.90;;;21.99;100.00;98094.91;5024723;28;20465;-80
2023/06/11 07:42:36;;;;;;;12.63;6.93;;;21.30;99.90;;;22.03;100.00;98098.66;5022125;28;20466;-81
2023/06/11 07:45:06;;;;;;;10.00;5.90;;;21.40;99.90;;;22.07;100.00;98091.78;5020976;28;20458;-81
2023/06/11 07:47:36;;;;;;;7.93;5.37;;;21.40;99.90;;;22.11;100.00;98097.38;5024622;28;20497;-80
2023/06/11 07:50:07;;;;;;;17.77;10.43;;;21.40;99.90;;;22.16;100.00;98087.53;5018854;28;20589;-80
2023/06/11 07:52:36;;;;;;;8.77;5.03;;;21.40;99.90;;;22.22;100.00;98101.66;5021830;28;20462;-81
2023/06/11 07:55:06;;;;;;;6.33;5.03;;;21.60;99.90;;;22.26;100.00;98095.56;5025666;28;20466;-79
2023/06/11 07:57:35;;;;;;;6.50;5.57;;;21.60;99.90;;;22.29;100.00;98084.38;5021709;28;20473;-80
2023/06/11 08:00:10;;;;;;;9.87;5.40;;;21.50;99.90;;;22.33;100.00;98093.47;5025727;28;20552;-80
2023/06/11 08:02:41;;;;;;;9.43;6.03;;;21.60;99.90;;;22.39;100.00;98088.94;5024561;28;20972;-80
2023/06/11 08:05:11;;;;;;;6.43;5.70;;;21.70;99.90;;;22.46;100.00;98081.50;5022937;28;20470;-81
2023/06/11 08:07:40;;;;;;;7.83;5.03;;;21.80;99.90;;;22.54;100.00;98091.66;5021624;28;20494;-80
2023/06/11 08:10:10;;;;;;;11.90;6.10;;;21.90;99.90;;;22.58;100.00;98090.88;5003320;28;20473;-80
2023/06/11 08:12:39;;;;;;;6.90;4.87;;;21.90;99.90;;;22.64;100.00;98086.34;5021977;28;20992;-80
2023/06/11 08:15:08;;;;;;;7.60;5.30;;;21.90;99.90;;;22.73;100.00;98082.16;5021039;28;20458;-77
2023/06/11 08:17:37;;;;;;;6.80;5.37;;;22.10;99.90;;;22.79;100.00;98082.94;5021932;28;20470;-80
2023/06/11 08:20:09;;;;;;;9.93;5.30;;;22.20;99.90;;;22.83;100.00;98084.03;5022950;28;21075;-81
2023/06/11 08:22:39;;;;;;;9.03;5.20;;;22.30;99.90;;;22.88;100.00;98071.50;5025526;28;20453;-81
2023/06/11 08:25:11;;;;;;;11.27;5.40;;;22.40;99.90;;;22.97;99.21;98074.44;5025497;28;20469;-81
2023/06/11 08:27:40;;;;;;;5.00;4.50;;;22.50;99.60;;;23.01;99.57;98076.28;5023693;28;20494;-81
2023/06/11 08:30:10;;;;;;;8.00;4.70;;;22.60;99.80;;;23.08;99.69;98071.50;5024652;28;20458;-81
2023/06/11 08:32:39;;;;;;;9.60;4.63;;;22.60;99.90;;;23.16;97.41;98075.50;5024823;28;20555;-82
2023/06/11 08:35:09;;;;;;;6.27;5.00;;;22.50;99.50;;;23.22;95.54;98082.44;5024113;28;20462;-79
2023/06/11 08:37:38;;;;;;;7.23;4.53;;;22.60;99.20;;;23.27;94.03;98079.78;5024268;28;20473;-80
2023/06/11 08:40:09;;;;;;;8.97;4.40;;;22.80;98.90;;;23.34;91.13;98066.97;5024783;28;20516;-80
2023/06/11 08:42:38;;;;;;;7.00;4.23;;;22.90;98.20;;;23.40;92.69;98070.41;5024266;28;20470;-81
2023/06/11 08:45:08;;;;;;;8.07;5.07;;;22.90;98.60;;;23.45;92.68;98068.59;5024340;28;20520;-80
2023/06/11 08:47:40;;;;;;;4.77;4.10;;;22.90;98.60;;;23.49;87.85;98056.31;5024196;28;20575;-80
2023/06/11 08:50:12;;;;;;;7.60;4.13;;;22.90;97.60;;;23.58;83.37;98069.09;5024504;28;20481;-81
2023/06/11 08:52:43;;;;;;;5.97;4.17;;;23.10;96.60;;;23.64;83.56;98068.03;5024984;28;20935;-81
2023/06/11 08:55:15;;;;;;;5.10;3.70;;;23.00;96.60;;;23.69;83.13;98070.69;5023722;28;20571;-81
2023/06/11 08:57:44;;;;;;;5.43;4.00;;;23.10;96.60;;;23.76;82.20;98061.31;5024873;28;20521;-81
2023/06/11 09:00:14;;;;;;;12.13;4.63;;;23.20;96.20;;;23.83;81.77;98066.38;5024574;28;20496;-81
2023/06/11 09:02:45;;;;;;;5.40;4.13;;;23.20;96.30;;;23.89;80.49;98070.63;5025158;28;20473;-81
2023/06/11 09:05:15;;;;;;;7.03;4.17;;;23.20;96.00;;;23.93;81.11;98061.00;5023073;28;20465;-81
2023/06/11 09:07:51;;;;;;;5.37;4.37;;;23.30;96.20;;;23.96;79.73;98060.44;5024062;28;20501;-81
2023/06/11 09:10:20;;;;;;;7.83;4.13;;;23.30;95.90;;;24.01;80.48;98068.47;5023571;28;20477;-81
2023/06/11 09:12:50;;;;;;;4.67;3.60;;;23.40;96.10;;;24.05;79.65;98064.94;5024861;28;20534;-81
2023/06/11 09:15:20;;;;;;;7.77;4.03;;;23.40;95.90;;;24.14;77.65;98049.19;5024340;28;20555;-81
2023/06/11 09:17:49;;;;;;;7.13;4.77;;;23.50;95.40;;;24.21;77.29;98054.22;5023859;28;20473;-81
2023/06/11 09:20:20;;;;;;;5.20;4.20;;;23.60;95.20;;;24.28;77.71;98068.91;5024819;28;20466;-81
2023/06/11 09:22:51;;;;;;;7.50;5.07;;;23.70;95.40;;;24.30;77.48;98053.38;5025382;28;20462;-81
2023/06/11 09:25:19;;;;;;;10.20;4.63;;;23.70;95.20;;;24.34;76.99;98057.09;5024053;28;20465;-84
2023/06/11 09:27:49;;;;;;;4.80;3.73;;;23.80;95.10;;;24.37;77.22;98056.56;5023668;28;20498;-82
2023/06/11 09:30:20;;;;;;;5.20;4.00;;;23.80;95.30;;;24.42;76.37;98055.72;5025378;28;20522;-81
2023/06/11 09:32:50;;;;;;;4.20;3.80;;;23.80;95.00;;;24.46;73.41;98060.25;5024512;28;20481;-81
2023/06/11 09:35:22;;;;;;;5.73;4.10;;;24.00;94.20;;;24.50;74.28;98055.94;5024241;28;20528;-81
2023/06/11 09:37:53;;;;;;;6.00;4.60;;;24.10;94.50;;;24.52;75.71;98053.81;5023995;28;20461;-81
2023/06/11 09:40:23;;;;;;;4.83;4.33;;;24.10;94.80;;;24.61;76.05;98053.22;5024271;28;20462;-79
2023/06/11 09:42:52;;;;;;;6.23;4.03;;;24.10;94.90;;;24.64;74.48;98063.38;5023774;28;21410;-80
2023/06/11 09:45:23;;;;;;;5.37;4.40;;;24.00;94.60;;;24.70;70.89;98059.59;5023345;28;20461;-80
2023/06/11 09:47:52;;;;;;;6.67;4.47;;;24.20;93.60;;;24.76;72.71;98053.09;5024465;28;20502;-79
2023/06/11 09:50:22;;;;;;;5.73;4.63;;;24.30;94.20;;;24.79;72.42;98053.34;5024975;28;20485;-80
2023/06/11 09:52:53;;;;;;;9.17;4.40;;;24.30;94.10;;;24.82;72.58;98054.66;5023003;28;20457;-80
2023/06/11 09:55:26;;;;;;;8.30;4.70;;;24.40;94.00;;;24.85;72.25;98056.84;5023258;28;20511;-79
2023/06/11 09:57:55;;;;;;;8.10;4.07;;;24.30;93.90;;;24.90;71.45;98054.13;5024244;28;20473;-80
2023/06/11 10:00:24;;;;;;;8.87;4.27;;;24.40;93.80;;;24.97;69.67;98065.31;5023754;28;21696;-80
2023/06/11 10:02:52;;;;;;;7.97;4.30;;;24.60;93.30;;;24.99;68.54;98060.50;5023594;28;20478;-80
2023/06/11 10:05:23;;;;;;;6.00;4.27;;;24.60;93.00;;;25.01;68.31;98051.09;5021862;28;20468;-80
2023/06/11 10:08:01;;;;;;;7.67;4.53;;;24.40;93.00;;;25.10;67.55;98061.97;5024759;28;20525;-80
2023/06/11 10:10:36;;;;;;;5.30;4.30;;;24.50;92.80;;;25.15;60.49;98061.97;5023535;28;20479;-80
2023/06/11 10:13:06;;;;;;;5.03;3.63;;;24.70;90.50;;;25.20;53.28;98059.22;5024135;28;20971;-80
2023/06/11 10:15:38;;;;;;;16.30;4.03;;;24.80;85.20;;;25.28;51.26;98061.31;5022512;28;20466;-80
2023/06/11 10:18:14;;;;;;;6.30;3.60;;;25.00;83.90;;;25.27;48.95;98070.41;5027577;28;20462;-80
2023/06/11 10:20:57;;;;;;;7.63;4.07;;;25.00;81.30;;;25.31;51.02;98058.06;5027083;28;20468;-80
2023/06/11 10:23:37;;;;;;;6.07;3.60;;;25.00;83.40;;;25.32;53.02;98073.06;5027942;28;20476;-80
2023/06/11 10:26:06;;;;;;;4.83;4.03;;;24.80;85.20;;;25.35;51.99;98061.78;5026166;28;20458;-80